NEODyS-2

Near Earth Objects - Dynamic Site
NEODyS ∴ Observatories ∴ Site 691 ∴ Obs & residuals
Contact »
691  ▹ 
OBSERVATIONS AND RESIDUALS

691-Steward Observatory, Kitt Peak-Spacewatch

Detections | Residuals | Detections & Residuals

[1-200] [201-400] [401-600] [601-800] [801-1000] [1001-1200] [1201-1400] [1401-1600] [1601-1800] [1801-2000] [2001-2200] [2201-2400] [2401-2600] [2601-2800] [2801-3000] [3001-3200] [3201-3400] [3401-3600] [3601-3800] [3801-4000] [4001-4200] [4201-4400] [4401-4600] [4601-4800] [4801-5000] [5001-5200] [5201-5400] [5401-5600] [5601-5800] [5801-6000] [6001-6200] [6201-6400] [6401-6600] [6601-6800] [6801-7000] [7001-7200] [7201-7400] [7401-7600] [7601-7800] [7801-8000] [8001-8200] [8201-8400] [8401-8600] [8601-8800] [8801-9000] [9001-9200] [9201-9400] [9401-9600] [9601-9800] [9801-10000] [10001-10200] [10201-10400] [10401-10600] [10601-10800] [10801-11000] [11001-11200] [11201-11400] [11401-11600] [11601-11800] [11801-12000] [12001-12200] [12201-12400] [12401-12600] [12601-12800] [12801-13000] [13001-13200] [13201-13400] [13401-13600] [13601-13800] [13801-14000] [14001-14200] [14201-14400] [14401-14600] [14601-14800] [14801-15000] [15001-15200] [15201-15400] [15401-15600] [15601-15800] [15801-16000] [16001-16200] [16201-16400] [16401-16600] [16601-16800] [16801-17000] [17001-17200] [17201-17400] [17401-17600] [17601-17800] [17801-18000] [18001-18200] [18201-18400] [18401-18600] [18601-18800] [18801-19000] [19001-19200] [19201-19400] [19401-19600] [19601-19800] [19801-20000] [20001-20200] [20201-20400] [20401-20600] [20601-20800] [20801-21000] [21001-21200] [21201-21400] [21401-21600] [21601-21800] [21801-22000] [22001-22200] [22201-22400] [22401-22600] [22601-22800] [22801-23000] [23001-23200] [23201-23400] [23401-23600] [23601-23800] [23801-24000] [24001-24200] [24201-24400] [24401-24600] [24601-24800] [24801-25000] [25001-25200] [25201-25400] [25401-25600] [25601-25800] [25801-26000] [26001-26200] [26201-26400] [26401-26600] [26601-26800] [26801-27000] [27001-27200] [27201-27400] [27401-27600] [27601-27800] [27801-28000] [28001-28200] [28201-28400] [28401-28600] [28601-28800] [28801-29000] [29001-29200] [29201-29400] [29401-29600] [29601-29800] [29801-30000] [30001-30200] [30201-30400] [30401-30600] [30601-30800] [30801-31000] [31001-31200] [31201-31400] [31401-31600] [31601-31800] [31801-32000] [32001-32200] [32201-32400] [32401-32600] [32601-32800] [32801-33000] [33001-33200] [33201-33400] [33401-33600] [33601-33800] [33801-34000] [34001-34200] [34201-34400] [34401-34600] [34601-34800] [34801-35000] [35001-35200] [35201-35400] [35401-35600] [35601-35800] [35801-36000] [36001-36200] [36201-36400] [36401-36600] [36601-36800] [36801-37000] [37001-37200] [37201-37400] [37401-37600] [37601-37800] [37801-38000] [38001-38200] [38201-38400] [38401-38600] [38601-38800] [38801-39000] [39001-39200] [39201-39400] [39401-39600] [39601-39800] [39801-40000] [40001-40200] [40201-40400] [40401-40600] [40601-40800] [40801-41000] [41001-41200] [41201-41400] [41401-41600] [41601-41800] [41801-42000] [42001-42200] [42201-42400] [42401-42600] [42601-42800] [42801-43000] [43001-43200] [43201-43400] [43401-43600] [43601-43800] [43801-44000] [44001-44200] [44201-44400] [44401-44600] [44601-44800] [44801-45000] [45001-45200] [45201-45400] [45401-45600] [45601-45800] [45801-46000] [46001-46200] [46201-46400] [46401-46600] [46601-46800] [46801-47000] [47001-47200] [47201-47400] [47401-47600] [47601-47800] [47801-48000] [48001-48200] [48201-48400] [48401-48600] [48601-48800] [48801-49000] [49001-49200] [49201-49400] [49401-49600] [49601-49800] [49801-50000] [50001-50200] [50201-50388]

Designation T Tech N Date Right Ascension Declination Apparent Magnitude Star Catalog Site code χ Used A Used M
yr-mo-day precision hr:min:sec precision rms F bias residual deg min sec precision rms F bias residual mag/col rms residual
2009HA21 O C H 2016-04-17.15267 1.000E-05 12:15:27.600 1.500E-01 0.500 F 0.318 -1.480 -03° 37' 14.00" 1.000E-01 0.500 F 0.086 -1.016 o 691 3.57 No No
2016GD1 O C H 2016-04-17.17278 1.000E-05 13:27:52.600 1.500E-01 0.500 F 0.293 -0.474 -16° 04' 52.80" 1.000E-01 0.500 F 0.053 -0.303 o 691 1.13 Yes No
2016GD1 O C H 2016-04-17.17665 1.000E-05 13:27:52.650 1.500E-01 0.500 F 0.293 0.199 -16° 05' 01.10" 1.000E-01 0.500 F 0.053 -1.378 o 691 2.80 Yes No
2016GD1 O C H 2016-04-17.18053 1.000E-05 13:27:52.680 1.500E-01 0.500 F 0.293 0.597 -16° 05' 08.30" 1.000E-01 0.500 F 0.053 -1.338 o 691 2.95 Yes No
2016EE158 O C H 2016-04-17.22904 1.000E-05 14:01:49.150 1.500E-01 0.500 F 0.214 0.231 +00° 45' 24.60" 1.000E-01 0.500 F 0.282 -0.943 o 691 1.95 Yes No
2016EE158 O C H 2016-04-17.23245 1.000E-05 14:01:49.720 1.500E-01 0.500 F 0.214 0.227 +00° 45' 29.50" 1.000E-01 0.500 F 0.282 -0.780 o 691 1.63 Yes No
2016EE158 O C H 2016-04-17.23587 1.000E-05 14:01:50.160 1.500E-01 0.500 F 0.214 -1.736 +00° 45' 33.70" 1.000E-01 0.500 F 0.282 -1.331 o 691 4.35 No No
2016EP85 O C H 2016-04-17.25756 1.000E-05 14:40:05.170 1.500E-01 0.500 F 0.211 1.441 -10° 40' 48.70" 1.000E-01 0.500 F 0.045 -0.421 o 691 3.02 Yes No
2016EP85 O C H 2016-04-17.27382 1.000E-05 14:40:04.890 1.500E-01 0.500 F 0.211 -0.004 -10° 40' 52.50" 1.000E-01 0.500 F 0.045 -0.042 o 691 0.09 Yes No
2016EP85 O C H 2016-04-17.28945 1.000E-05 14:40:04.720 1.500E-01 0.500 F 0.211 0.181 -10° 40' 57.00" 1.000E-01 0.500 F 0.045 -0.564 o 691 1.19 Yes No
2016GL222 O C H 2016-04-17.30585 1.000E-05 14:27:00.580 1.500E-01 0.500 F 0.101 0.008 -04° 53' 33.00" 1.000E-01 0.500 F 0.073 -0.230 o 691 0.47 Yes No
2016GL222 O C H 2016-04-17.31042 1.000E-05 14:27:00.310 1.500E-01 0.500 F 0.101 -0.354 -04° 53' 21.10" 1.000E-01 0.500 F 0.073 0.336 o 691 1.00 Yes No
2016GL222 O C H 2016-04-17.31499 1.000E-05 14:27:00.080 1.500E-01 0.500 F 0.101 -0.101 -04° 53' 09.30" 1.000E-01 0.500 F 0.073 0.797 o 691 1.64 Yes No
2016GP134 O C H 2016-04-17.33555 1.000E-05 14:59:50.500 1.500E-01 0.500 F 0.399 0.613 +03° 43' 44.60" 1.000E-01 0.500 F 0.138 -0.892 o 691 2.23 Yes No
2016GP134 O C H 2016-04-17.34012 1.000E-05 14:59:50.290 1.500E-01 0.500 F 0.399 0.176 +03° 44' 03.50" 1.000E-01 0.500 F 0.138 0.218 o 691 0.58 Yes No
2016GP134 O C H 2016-04-17.34468 1.000E-05 14:59:50.110 1.500E-01 0.500 F 0.399 0.186 +03° 44' 19.90" 1.000E-01 0.500 F 0.138 -1.130 o 691 2.37 Yes No
2016GD241 O C H 2016-04-17.35014 1.000E-05 15:55:59.270 1.500E-01 0.500 F 0.224 0.373 -24° 28' 24.90" 1.000E-01 0.500 F 0.246 -0.373 o 691 1.07 Yes No
2016GD241 O C H 2016-04-17.35239 1.000E-05 15:55:59.360 1.500E-01 0.500 F 0.224 0.171 -24° 28' 31.60" 1.000E-01 0.500 F 0.246 -0.448 o 691 0.97 Yes No
2016GD241 O C H 2016-04-17.35465 1.000E-05 15:55:59.460 1.500E-01 0.500 F 0.224 0.102 -24° 28' 37.80" 1.000E-01 0.500 F 0.246 0.007 o 691 0.21 Yes No
2016GK222 O C m 2016-04-17.37086 1.000E-05 16:19:19.130 1.500E-01 0.500 F 0.011 -0.251 -04° 52' 43.40" 1.000E-01 0.500 F 0.213 0.538 21.4 V 0.70 0.02 o 691 1.24 Yes Yes
2016GK222 O C m 2016-04-17.37543 1.000E-05 16:19:18.760 1.500E-01 0.500 F 0.011 0.143 -04° 52' 26.10" 1.000E-01 0.500 F 0.213 1.387 21.6 V 0.70 0.22 o 691 2.90 Yes Yes
2016GK222 O C m 2016-04-17.38000 1.000E-05 16:19:18.330 1.500E-01 0.500 F 0.011 -0.355 -04° 52' 09.30" 1.000E-01 0.500 F 0.213 1.736 21.4 V 0.70 0.02 o 691 3.41 No Yes
2016GW221 O C H 2016-04-17.38451 1.000E-05 16:25:52.080 1.500E-01 0.500 F -0.007 0.538 -14° 32' 49.90" 1.000E-01 0.500 F 0.110 -0.954 o 691 2.20 Yes No
2016GW221 O C H 2016-04-17.38606 1.000E-05 16:25:50.750 1.500E-01 0.500 F -0.007 0.280 -14° 32' 52.20" 1.000E-01 0.500 F 0.110 -0.559 o 691 1.26 Yes No
2016GW221 O C H 2016-04-17.38762 1.000E-05 16:25:49.460 1.500E-01 0.500 F -0.007 0.732 -14° 32' 55.10" 1.000E-01 0.500 F 0.110 -0.751 o 691 2.11 Yes No
2014JY24 O C H 2016-04-17.39267 1.000E-05 16:42:46.940 1.500E-01 0.500 F 0.306 -0.555 +07° 48' 41.90" 1.000E-01 0.500 F 0.033 0.118 19.4 V 0.70 0.30 o 691 1.14 Yes Yes
2014JY24 O C H 2016-04-17.39469 1.000E-05 16:42:46.510 1.500E-01 0.500 F 0.306 -0.328 +07° 48' 39.60" 1.000E-01 0.500 F 0.033 0.065 19.5 V 0.70 0.40 o 691 0.67 Yes Yes
2014JY24 O C H 2016-04-17.39672 1.000E-05 16:42:46.070 1.500E-01 0.500 F 0.306 -0.215 +07° 48' 37.20" 1.000E-01 0.500 F 0.033 -0.077 19.5 V 0.70 0.40 o 691 0.46 Yes Yes
2016FF13 O C m 2016-04-17.39971 1.000E-05 17:08:02.400 1.500E-01 0.500 F 0.045 -0.197 +17° 19' 53.60" 1.000E-01 0.500 F 0.247 0.217 20.0 V 0.70 0.25 o 691 0.62 Yes Yes
2016FF13 O C m 2016-04-17.40127 1.000E-05 17:08:04.230 1.500E-01 0.500 F 0.045 -0.240 +17° 19' 55.60" 1.000E-01 0.500 F 0.247 0.610 19.9 V 0.70 0.14 o 691 1.38 Yes Yes
2016FF13 O C m 2016-04-17.40282 1.000E-05 17:08:06.050 1.500E-01 0.500 F 0.045 -0.256 +17° 19' 56.70" 1.000E-01 0.500 F 0.247 0.117 20.0 V 0.70 0.24 o 691 0.59 Yes Yes
2010GY6 O C H 2016-04-17.40595 1.000E-05 17:52:46.430 1.500E-01 0.500 F -0.072 -2.149 -01° 00' 02.10" 1.000E-01 0.500 F -0.015 -0.307 19.7 V 0.70 0.02 o 691 4.27 No Yes
2010GY6 O C H 2016-04-17.40752 1.000E-05 17:52:46.690 1.500E-01 0.500 F -0.072 -2.005 -00° 59' 55.40" 1.000E-01 0.500 F -0.015 0.509 19.8 V 0.70 0.12 o 691 4.08 No Yes
2010GY6 O C H 2016-04-17.40908 1.000E-05 17:52:46.910 1.500E-01 0.500 F -0.072 -2.436 -00° 59' 50.10" 1.000E-01 0.500 F -0.015 -0.037 19.8 V 0.70 0.12 o 691 4.80 No Yes
2016GD134 O C H 2016-04-17.41632 1.000E-05 15:55:04.080 1.500E-01 0.500 F 0.190 -0.344 -00° 01' 29.00" 1.000E-01 0.500 F 0.174 -0.196 20.6 V 0.70 0.09 o 691 0.79 Yes Yes
2016GD134 O C H 2016-04-17.41904 1.000E-05 15:55:03.800 1.500E-01 0.500 F 0.190 -0.349 -00° 01' 19.00" 1.000E-01 0.500 F 0.174 0.574 20.5 V 0.70 -0.01 o 691 1.35 Yes Yes
2016GD134 O C H 2016-04-17.42175 1.000E-05 15:55:03.520 1.500E-01 0.500 F 0.190 -0.371 -00° 01' 10.40" 1.000E-01 0.500 F 0.174 -0.023 20.7 V 0.70 0.19 o 691 0.75 Yes Yes
2016GC1 O C H 2016-04-17.42530 1.000E-05 15:48:51.310 1.500E-01 0.500 F 0.217 1.642 -07° 20' 41.30" 1.000E-01 0.500 F 0.049 -1.865 o 691 4.61 No No
2016GC1 O C H 2016-04-17.42685 1.000E-05 15:48:53.850 1.500E-01 0.500 F 0.217 2.895 -07° 20' 48.10" 1.000E-01 0.500 F 0.049 -1.868 o 691 6.31 No No
2016GC1 O C H 2016-04-17.42842 1.000E-05 15:48:55.950 1.500E-01 0.500 F 0.217 -2.887 -07° 20' 53.00" 1.000E-01 0.500 F 0.049 0.116 o 691 5.25 No No
2014TF64 O C H 2016-04-17.43193 1.000E-05 15:33:33.980 1.500E-01 0.500 F -0.018 0.299 -17° 52' 00.50" 1.000E-01 0.500 F 0.083 -0.865 o 691 1.84 Yes No
2014TF64 O C H 2016-04-17.43464 1.000E-05 15:33:33.750 1.500E-01 0.500 F -0.018 0.314 -17° 51' 50.60" 1.000E-01 0.500 F 0.083 -0.791 o 691 1.71 Yes No
2014TF64 O C H 2016-04-17.43736 1.000E-05 15:33:33.530 1.500E-01 0.500 F -0.018 0.484 -17° 51' 41.70" 1.000E-01 0.500 F 0.083 -1.755 o 691 3.63 No No
2016FJ39 O C H 2016-04-17.44175 1.000E-05 15:44:14.420 1.500E-01 0.500 F 0.219 0.613 +08° 39' 41.60" 1.000E-01 0.500 F 0.234 -0.316 o 691 1.38 Yes No
2016FJ39 O C H 2016-04-17.44539 1.000E-05 15:44:14.740 1.500E-01 0.500 F 0.219 0.804 +08° 39' 40.50" 1.000E-01 0.500 F 0.234 -0.886 o 691 2.40 Yes No
2016FJ39 O C H 2016-04-17.44903 1.000E-05 15:44:15.020 1.500E-01 0.500 F 0.219 0.398 +08° 39' 40.00" 1.000E-01 0.500 F 0.234 -0.854 o 691 1.89 Yes No
2012XD17 O C H 2016-04-17.45426 1.000E-05 15:19:45.360 1.500E-01 0.500 F 0.129 0.113 +06° 33' 44.30" 1.000E-01 0.500 F 0.192 -0.184 o 691 0.44 Yes No
2012XD17 O C H 2016-04-17.45813 1.000E-05 15:19:44.990 1.500E-01 0.500 F 0.129 -1.009 +06° 33' 43.50" 1.000E-01 0.500 F 0.192 -0.844 o 691 2.68 Yes No
2012XD17 O C H 2016-04-17.46201 1.000E-05 15:19:44.790 1.500E-01 0.500 F 0.129 0.412 +06° 33' 43.70" 1.000E-01 0.500 F 0.192 -0.503 o 691 1.33 Yes No
2016FF15 O C H 2016-04-17.46738 1.000E-05 14:42:44.450 1.500E-01 0.500 F 0.039 0.425 -03° 12' 33.90" 1.000E-01 0.500 F 0.111 -0.920 o 691 2.03 Yes No
2016FF15 O C H 2016-04-17.47079 1.000E-05 14:42:43.950 1.500E-01 0.500 F 0.039 -0.556 -03° 12' 32.90" 1.000E-01 0.500 F 0.111 -0.931 o 691 2.17 Yes No
2016FF15 O C H 2016-04-17.47420 1.000E-05 14:42:43.590 1.500E-01 0.500 F 0.039 0.558 -03° 12' 31.70" 1.000E-01 0.500 F 0.111 -0.742 o 691 1.86 Yes No
2014ED O C H 2016-04-17.47994 1.000E-05 15:09:32.780 1.500E-01 0.500 F 0.082 0.049 +15° 23' 29.70" 1.000E-01 0.500 F 0.246 0.123 20.8 V 0.70 -0.40 o 691 0.27 Yes Yes
2014ED O C H 2016-04-17.48288 1.000E-05 15:09:32.260 1.500E-01 0.500 F 0.082 -0.944 +15° 23' 29.50" 1.000E-01 0.500 F 0.246 -0.067 21.0 V 0.70 -0.20 o 691 1.90 Yes Yes
2014ED O C H 2016-04-17.48583 1.000E-05 15:09:31.910 1.500E-01 0.500 F 0.082 0.541 +15° 23' 29.40" 1.000E-01 0.500 F 0.246 -0.156 21.0 V 0.70 -0.20 o 691 1.13 Yes Yes
2016HA O C m 2016-04-17.49188 1.000E-05 14:05:14.990 1.500E-01 0.500 F 0.023 -0.271 +13° 47' 10.40" 1.000E-01 0.500 F 0.332 0.071 20.5 V 0.70 0.17 o 691 0.62 Yes Yes
2016HA O C m 2016-04-17.49344 1.000E-05 14:05:15.550 1.500E-01 0.500 F 0.023 0.431 +13° 47' 34.00" 1.000E-01 0.500 F 0.332 -0.423 20.5 V 0.70 0.18 o 691 1.31 Yes Yes
2007EP88 O C H 2016-04-18.14073 1.000E-05 07:31:19.050 1.500E-01 0.500 F 0.044 1.031 +03° 19' 37.80" 1.000E-01 0.500 F -0.053 -0.473 o 691 2.32 Yes No
2007EP88 O C H 2016-04-18.14322 1.000E-05 07:31:19.750 1.500E-01 0.500 F 0.044 1.048 +03° 19' 37.50" 1.000E-01 0.500 F -0.053 -0.281 o 691 2.22 Yes No
2007EP88 O C H 2016-04-18.14570 1.000E-05 07:31:20.350 1.500E-01 0.500 F 0.044 -0.391 +03° 19' 36.70" 1.000E-01 0.500 F -0.053 -0.590 o 691 1.43 Yes No
2011UU20 O C H 2016-04-18.15030 1.000E-05 07:10:31.530 1.500E-01 0.500 F -0.114 0.410 +30° 28' 37.20" 1.000E-01 0.500 F 0.233 -0.889 o 691 1.97 Yes No
2011UU20 O C H 2016-04-18.15324 1.000E-05 07:10:32.270 1.500E-01 0.500 F -0.114 -0.253 +30° 28' 31.80" 1.000E-01 0.500 F 0.233 -0.364 o 691 0.89 Yes No
2011UU20 O C H 2016-04-18.15619 1.000E-05 07:10:33.120 1.500E-01 0.500 F -0.114 0.470 +30° 28' 25.40" 1.000E-01 0.500 F 0.233 -0.818 o 691 1.90 Yes No
2016GZ240 O C H 2016-04-18.16361 1.000E-05 12:31:18.700 1.500E-01 0.500 F 0.247 0.164 -00° 55' 23.90" 1.000E-01 0.500 F 0.246 -1.364 o 691 2.78 Yes No
2016GZ240 O C H 2016-04-18.16702 1.000E-05 12:31:18.480 1.500E-01 0.500 F 0.247 0.261 -00° 55' 28.40" 1.000E-01 0.500 F 0.246 -0.492 o 691 1.13 Yes No
2016GZ240 O C H 2016-04-18.17044 1.000E-05 12:31:18.260 1.500E-01 0.500 F 0.247 0.378 -00° 55' 33.90" 1.000E-01 0.500 F 0.246 -0.603 o 691 1.44 Yes No
2016GW2 O C m 2016-04-18.18649 1.000E-05 13:26:53.780 1.500E-01 0.500 F 0.195 -1.989 -03° 57' 44.70" 1.000E-01 0.500 F 0.060 -0.562 o 691 3.94 No No
2016GW2 O C m 2016-04-18.18967 1.000E-05 13:26:54.950 1.500E-01 0.500 F 0.195 -2.236 -03° 57' 40.10" 1.000E-01 0.500 F 0.060 -1.005 o 691 4.68 No No
2016GW2 O C m 2016-04-18.19285 1.000E-05 13:26:56.220 1.500E-01 0.500 F 0.195 -0.967 -03° 57' 34.70" 1.000E-01 0.500 F 0.060 -0.650 o 691 2.45 Yes No
2016GD1 O C H 2016-04-18.22336 1.000E-05 13:28:03.840 1.500E-01 0.500 F 0.193 0.472 -16° 36' 54.70" 1.000E-01 0.500 F 0.063 -0.387 o 691 1.23 Yes No
2016GD1 O C H 2016-04-18.22723 1.000E-05 13:28:03.850 1.500E-01 0.500 F 0.193 0.681 -16° 37' 02.00" 1.000E-01 0.500 F 0.063 -0.514 o 691 1.72 Yes No
2016GD1 O C H 2016-04-18.23110 1.000E-05 13:28:03.800 1.500E-01 0.500 F 0.193 0.036 -16° 37' 09.50" 1.000E-01 0.500 F 0.063 -0.845 o 691 1.70 Yes No
2004JN2 O C m 2016-04-18.23606 1.000E-05 13:01:34.220 1.500E-01 0.500 F 0.313 0.425 -28° 47' 24.90" 1.000E-01 0.500 F 0.192 -0.244 o 691 0.99 Yes No
2004JN2 O C m 2016-04-18.24063 1.000E-05 13:01:33.430 1.500E-01 0.500 F 0.313 0.340 -28° 47' 14.10" 1.000E-01 0.500 F 0.192 -1.201 o 691 2.52 Yes No
2004JN2 O C m 2016-04-18.24519 1.000E-05 13:01:32.550 1.500E-01 0.500 F 0.313 -0.949 -28° 47' 00.70" 1.000E-01 0.500 F 0.192 0.463 o 691 2.14 Yes No
2016GT220 O C H 2016-04-18.27502 1.000E-05 13:22:47.070 1.500E-01 0.500 F 0.274 1.116 -30° 19' 21.00" 1.000E-01 0.500 F 0.285 -0.084 o 691 2.24 Yes No
2016GT220 O C H 2016-04-18.27890 1.000E-05 13:22:46.530 1.500E-01 0.500 F 0.274 0.227 -30° 19' 21.30" 1.000E-01 0.500 F 0.285 -0.481 o 691 1.07 Yes No
2016GT220 O C H 2016-04-18.28277 1.000E-05 13:22:46.060 1.500E-01 0.500 F 0.274 0.229 -30° 19' 21.40" 1.000E-01 0.500 F 0.285 -0.680 o 691 1.44 Yes No
2016GN221 O C H 2016-04-18.29131 1.000E-05 14:38:56.860 1.500E-01 0.500 F 0.325 -0.385 -27° 44' 44.10" 1.000E-01 0.500 F 0.263 -0.402 20.5 V 0.70 0.25 o 691 1.12 Yes Yes
2016GN221 O C H 2016-04-18.29588 1.000E-05 14:38:57.140 1.500E-01 0.500 F 0.325 0.414 -27° 44' 41.70" 1.000E-01 0.500 F 0.263 -0.226 20.7 V 0.70 0.45 o 691 0.95 Yes Yes
2016GN221 O C H 2016-04-18.30044 1.000E-05 14:38:57.310 1.500E-01 0.500 F 0.325 -0.236 -27° 44' 39.40" 1.000E-01 0.500 F 0.263 -0.151 20.7 V 0.70 0.45 o 691 0.56 Yes Yes
2016GY220 O C H 2016-04-18.30816 1.000E-05 14:32:52.790 1.500E-01 0.500 F 0.328 0.441 -25° 01' 35.70" 1.000E-01 0.500 F 0.361 -0.681 o 691 1.91 Yes No
2016GY220 O C H 2016-04-18.31203 1.000E-05 14:32:52.440 1.500E-01 0.500 F 0.328 -0.653 -25° 02' 13.20" 1.000E-01 0.500 F 0.361 0.213 o 691 1.58 Yes No
2016GY220 O C H 2016-04-18.31590 1.000E-05 14:32:52.220 1.500E-01 0.500 F 0.328 0.029 -25° 02' 52.70" 1.000E-01 0.500 F 0.361 -0.925 o 691 2.20 Yes No
2016GF216 O C H 2016-04-18.36505 1.000E-05 14:18:31.980 1.500E-01 0.500 F 0.007 -0.208 +23° 25' 04.80" 1.000E-01 0.500 F 0.247 -0.095 o 691 0.46 Yes No
2016GF216 O C H 2016-04-18.36962 1.000E-05 14:18:32.640 1.500E-01 0.500 F 0.007 0.234 +23° 25' 02.60" 1.000E-01 0.500 F 0.247 -0.346 o 691 0.84 Yes No
2016GF216 O C H 2016-04-18.37419 1.000E-05 14:18:33.230 1.500E-01 0.500 F 0.007 -0.308 +23° 25' 00.00" 1.000E-01 0.500 F 0.247 -0.963 o 691 2.03 Yes No
2016GS2 O C H 2016-04-18.38391 1.000E-05 14:33:20.250 1.500E-01 0.500 F 0.133 -0.110 +02° 54' 14.60" 1.000E-01 0.500 F 0.285 -0.309 20.3 V 0.70 0.34 o 691 0.66 Yes Yes
2016GS2 O C H 2016-04-18.38871 1.000E-05 14:33:20.180 1.500E-01 0.500 F 0.133 -0.132 +02° 54' 18.90" 1.000E-01 0.500 F 0.285 0.094 20.5 V 0.70 0.54 o 691 0.32 Yes Yes
2016GS2 O C H 2016-04-18.39351 1.000E-05 14:33:20.100 1.500E-01 0.500 F 0.133 -0.316 +02° 54' 23.00" 1.000E-01 0.500 F 0.285 0.298 20.4 V 0.70 0.44 o 691 0.87 Yes Yes
2016HF O C m 2016-04-18.40177 1.000E-05 15:15:20.520 1.500E-01 0.612 F 0.127 -1.618 +05° 14' 41.20" 1.000E-01 0.612 F 0.172 0.498 20.6 V 0.70 0.17 o 691 2.80 Yes Yes
2016HF O C m 2016-04-18.40471 1.000E-05 15:15:21.530 1.500E-01 0.612 F 0.127 -2.119 +05° 14' 33.80" 1.000E-01 0.612 F 0.172 1.236 20.7 V 0.70 0.27 o 691 3.95 No Yes
2016HF O C m 2016-04-18.40766 1.000E-05 15:15:22.700 1.500E-01 0.612 F 0.127 -0.285 +05° 14' 23.60" 1.000E-01 0.612 F 0.172 -0.797 20.6 V 0.70 0.17 o 691 1.40 Yes Yes
2016HF O C m 2016-04-18.41150 1.000E-05 15:15:23.950 1.500E-01 0.612 F 0.127 -1.982 +05° 14' 14.60" 1.000E-01 0.612 F 0.172 0.836 20.6 V 0.70 0.17 o 691 3.47 No Yes
2016HF O C m 2016-04-18.41607 1.000E-05 15:15:25.530 1.500E-01 0.612 F 0.127 -2.633 +05° 14' 02.30" 1.000E-01 0.612 F 0.172 1.195 20.7 V 0.70 0.27 o 691 4.66 No Yes
2016HF O C m 2016-04-18.42064 1.000E-05 15:15:27.260 1.500E-01 0.612 F 0.127 -1.058 +05° 13' 49.10" 1.000E-01 0.612 F 0.172 0.658 20.7 V 0.70 0.27 o 691 2.06 Yes Yes
2016GP134 O C m 2016-04-18.42569 1.000E-05 14:59:16.490 1.500E-01 0.500 F 0.345 0.203 +04° 53' 37.00" 1.000E-01 0.500 F 0.140 0.577 o 691 1.27 Yes No
2016GP134 O C m 2016-04-18.43072 1.000E-05 14:59:16.240 1.500E-01 0.500 F 0.345 -0.479 +04° 53' 56.10" 1.000E-01 0.500 F 0.140 0.607 o 691 1.60 Yes No
2016GP134 O C m 2016-04-18.43575 1.000E-05 14:59:16.050 1.500E-01 0.500 F 0.345 -0.275 +04° 54' 13.90" 1.000E-01 0.500 F 0.140 -0.659 o 691 1.49 Yes No
2016GE2 O C H 2016-04-18.46719 1.000E-05 14:41:47.420 1.500E-01 0.500 F 0.160 0.499 -14° 27' 56.90" 1.000E-01 0.500 F 0.018 0.213 20.2 V 0.70 0.59 o 691 1.09 Yes Yes
2016GE2 O C H 2016-04-18.46967 1.000E-05 14:41:47.830 1.500E-01 0.500 F 0.160 0.193 -14° 27' 53.00" 1.000E-01 0.500 F 0.018 0.124 20.0 V 0.70 0.39 o 691 0.46 Yes Yes
2016GE2 O C H 2016-04-18.47216 1.000E-05 14:41:48.270 1.500E-01 0.500 F 0.160 0.291 -14° 27' 49.00" 1.000E-01 0.500 F 0.018 0.116 20.1 V 0.70 0.49 o 691 0.63 Yes Yes
2007EP88 O C H 2016-04-19.13818 1.000E-05 07:35:56.720 1.500E-01 0.500 F 0.092 0.882 +03° 16' 23.00" 1.000E-01 0.500 F -0.069 -0.308 o 691 1.91 Yes No
2007EP88 O C H 2016-04-19.14089 1.000E-05 07:35:57.390 1.500E-01 0.500 F 0.092 0.038 +03° 16' 22.30" 1.000E-01 0.500 F -0.069 -0.471 o 691 0.96 Yes No
2007EP88 O C H 2016-04-19.14361 1.000E-05 07:35:58.220 1.500E-01 0.500 F 0.092 1.549 +03° 16' 21.60" 1.000E-01 0.500 F -0.069 -0.633 o 691 3.27 No No
2011UU20 O C H 2016-04-19.14889 1.000E-05 07:15:01.660 1.500E-01 0.500 F -0.106 0.803 +29° 55' 11.50" 1.000E-01 0.500 F 0.185 -0.226 20.2 V 0.70 0.09 o 691 1.68 Yes Yes
2011UU20 O C H 2016-04-19.15161 1.000E-05 07:15:02.330 1.500E-01 0.500 F -0.106 0.107 +29° 55' 06.50" 1.000E-01 0.500 F 0.185 0.313 20.3 V 0.70 0.19 o 691 0.66 Yes Yes
2011UU20 O C H 2016-04-19.15433 1.000E-05 07:15:03.050 1.500E-01 0.500 F -0.106 0.059 +29° 55' 00.50" 1.000E-01 0.500 F 0.185 -0.147 20.2 V 0.70 0.09 o 691 0.32 Yes Yes
2016GD207 O C H 2016-04-19.16062 1.000E-05 11:18:35.560 1.500E-01 0.500 F 0.206 0.696 +12° 08' 58.50" 1.000E-01 0.500 F 0.181 -0.230 o 691 1.69 Yes No
2016GD207 O C H 2016-04-19.16195 1.000E-05 11:18:35.250 1.500E-01 0.500 F 0.206 -0.063 +12° 08' 15.60" 1.000E-01 0.500 F 0.181 -1.316 o 691 3.00 Yes No
2016GD207 O C H 2016-04-19.16328 1.000E-05 11:18:34.990 1.500E-01 0.500 F 0.206 -0.079 +12° 07' 35.80" 1.000E-01 0.500 F 0.181 0.723 o 691 1.64 Yes No
2016GD1 O C H 2016-04-19.20541 1.000E-05 13:28:15.810 1.500E-01 0.500 F 0.193 -0.288 -17° 06' 50.00" 1.000E-01 0.500 F 0.063 -1.165 o 691 2.42 Yes No
2016GD1 O C H 2016-04-19.20929 1.000E-05 13:28:15.820 1.500E-01 0.500 F 0.193 -0.160 -17° 06' 56.50" 1.000E-01 0.500 F 0.063 -0.453 o 691 0.97 Yes No
2016GD1 O C H 2016-04-19.21316 1.000E-05 13:28:15.810 1.500E-01 0.500 F 0.193 -0.309 -17° 07' 01.90" 1.000E-01 0.500 F 0.063 1.336 o 691 2.76 Yes No
2016GT220 O C H 2016-04-19.23014 1.000E-05 13:20:53.950 1.500E-01 0.500 F 0.274 -0.563 -30° 18' 46.20" 1.000E-01 0.500 F 0.285 -0.763 o 691 1.90 Yes No
2016GT220 O C H 2016-04-19.23355 1.000E-05 13:20:53.470 1.500E-01 0.500 F 0.274 -1.437 -30° 18' 46.00" 1.000E-01 0.500 F 0.285 -0.700 o 691 3.19 No No
2016GT220 O C H 2016-04-19.23696 1.000E-05 13:20:53.120 1.500E-01 0.500 F 0.274 -0.627 -30° 18' 45.80" 1.000E-01 0.500 F 0.285 -0.638 o 691 1.79 Yes No
2016GS2 O C H 2016-04-19.27802 1.000E-05 14:33:27.850 1.500E-01 0.500 F 0.133 -0.301 +03° 06' 36.30" 1.000E-01 0.500 F 0.285 -0.016 20.1 V 0.70 0.22 o 691 0.60 Yes Yes
2016GS2 O C H 2016-04-19.28120 1.000E-05 14:33:27.830 1.500E-01 0.500 F 0.133 0.125 +03° 06' 38.70" 1.000E-01 0.500 F 0.285 -0.320 20.0 V 0.70 0.12 o 691 0.69 Yes Yes
2016GS2 O C H 2016-04-19.28438 1.000E-05 14:33:27.740 1.500E-01 0.500 F 0.133 -0.489 +03° 06' 41.50" 1.000E-01 0.500 F 0.285 -0.223 19.9 V 0.70 0.02 o 691 1.08 Yes Yes
2016GN221 O C H 2016-04-19.33018 1.000E-05 14:39:55.180 1.500E-01 0.500 F 0.350 0.336 -27° 35' 38.10" 1.000E-01 0.500 F 0.265 -1.380 o 691 2.85 Yes No
2016GN221 O C H 2016-04-19.33359 1.000E-05 14:39:55.320 1.500E-01 0.500 F 0.350 0.028 -27° 35' 36.00" 1.000E-01 0.500 F 0.265 -1.144 o 691 2.30 Yes No
2016GN221 O C H 2016-04-19.33700 1.000E-05 14:39:55.460 1.500E-01 0.500 F 0.350 -0.279 -27° 35' 33.40" 1.000E-01 0.500 F 0.265 -0.411 o 691 1.00 Yes No
2016GP134 O C m 2016-04-19.35905 1.000E-05 14:58:47.230 1.500E-01 0.500 F 0.287 0.111 +05° 52' 00.30" 1.000E-01 0.500 F 0.171 -0.289 o 691 0.64 Yes No
2016GP134 O C m 2016-04-19.36246 1.000E-05 14:58:47.110 1.500E-01 0.500 F 0.287 0.508 +05° 52' 11.90" 1.000E-01 0.500 F 0.171 -1.342 o 691 2.98 Yes No
2008TZ3 O C H 2016-04-19.36519 1.000E-05 15:03:20.130 1.500E-01 0.500 F 0.053 -0.284 +08° 01' 44.40" 1.000E-01 0.500 F 0.070 -0.062 17.0 V 0.70 0.25 o 691 0.58 Yes Yes
2008TZ3 O C H 2016-04-19.36675 1.000E-05 15:03:20.440 1.500E-01 0.500 F 0.053 -0.117 +08° 01' 40.40" 1.000E-01 0.500 F 0.070 -0.163 17.0 V 0.70 0.25 o 691 0.40 Yes Yes
2008TZ3 O C H 2016-04-19.36831 1.000E-05 15:03:20.730 1.500E-01 0.500 F 0.053 -0.248 +08° 01' 36.50" 1.000E-01 0.500 F 0.070 -0.162 17.0 V 0.70 0.25 o 691 0.59 Yes Yes
2016GW221 O C H 2016-04-19.39279 1.000E-05 15:58:00.960 1.500E-01 0.500 F -0.095 -0.255 -15° 26' 03.30" 1.000E-01 0.500 F 0.091 -0.979 o 691 2.04 Yes No
2016GW221 O C H 2016-04-19.39434 1.000E-05 15:57:59.530 1.500E-01 0.500 F -0.095 0.619 -15° 26' 05.50" 1.000E-01 0.500 F 0.091 -0.889 o 691 2.18 Yes No
2016GW221 O C H 2016-04-19.39590 1.000E-05 15:57:58.000 1.500E-01 0.500 F -0.095 0.189 -15° 26' 07.50" 1.000E-01 0.500 F 0.091 -0.589 o 691 1.24 Yes No
2016GD241 O C H 2016-04-19.40217 1.000E-05 15:58:12.870 1.500E-01 0.500 F 0.269 -0.636 -26° 22' 59.70" 1.000E-01 0.500 F 0.334 -0.141 o 691 1.33 Yes No
2016GD241 O C H 2016-04-19.40488 1.000E-05 15:58:13.090 1.500E-01 0.500 F 0.269 0.290 -26° 23' 10.70" 1.000E-01 0.500 F 0.334 -0.729 o 691 1.60 Yes No
2016GC1 O C m 2016-04-19.41813 1.000E-05 16:58:03.690 1.500E-01 0.500 F -0.117 -0.461 -09° 59' 20.20" 1.000E-01 0.500 F 0.112 -0.622 o 691 1.73 Yes No
2016GC1 O C m 2016-04-19.41992 1.000E-05 16:58:07.930 1.500E-01 0.500 F -0.117 -0.416 -09° 59' 28.10" 1.000E-01 0.500 F 0.112 0.170 o 691 1.03 Yes No
2016GC1 O C m 2016-04-19.42171 1.000E-05 16:58:12.140 1.500E-01 0.500 F -0.117 -0.828 -09° 59' 37.10" 1.000E-01 0.500 F 0.112 -0.146 o 691 1.94 Yes No
2007JX2 O C H 2016-04-19.42537 1.000E-05 17:08:48.500 1.500E-01 0.500 F -0.005 -4.408 -21° 15' 45.70" 1.000E-01 0.500 F 0.132 -3.220 o 691 10.73 No No
2007JX2 O C H 2016-04-19.42764 1.000E-05 17:08:47.980 1.500E-01 0.500 F -0.005 -4.501 -21° 15' 46.80" 1.000E-01 0.500 F 0.132 -2.828 o 691 10.44 No No
2007JX2 O C H 2016-04-19.42989 1.000E-05 17:08:47.520 1.500E-01 0.500 F -0.005 -3.818 -21° 15' 48.60" 1.000E-01 0.500 F 0.132 -3.152 o 691 9.74 No No
2008TZ3 O C 2016-04-21.22188 1.000E-05 15:11:01.930 1.500E-01 0.500 F 0.045 -0.288 +06° 33' 44.40" 1.000E-01 0.500 F 0.216 -0.077 16.6 V 0.70 0.11 o 691 0.60 Yes Yes
2008TZ3 O C 2016-04-21.22324 1.000E-05 15:11:02.270 1.500E-01 0.500 F 0.045 -0.256 +06° 33' 40.20" 1.000E-01 0.500 F 0.216 0.041 16.6 V 0.70 0.11 o 691 0.52 Yes Yes
2008TZ3 O C 2016-04-21.22460 1.000E-05 15:11:02.590 1.500E-01 0.500 F 0.045 -0.518 +06° 33' 35.70" 1.000E-01 0.500 F 0.216 -0.139 16.4 V 0.70 -0.09 o 691 1.08 Yes Yes
2014JY24 O C H 2016-04-21.24269 1.000E-05 16:28:54.020 1.500E-01 0.500 F 0.138 0.333 +06° 34' 42.70" 1.000E-01 0.500 F 0.223 -0.194 19.5 V 0.70 0.44 o 691 0.78 Yes Yes
2014JY24 O C H 2016-04-21.24567 1.000E-05 16:28:53.410 1.500E-01 0.500 F 0.138 1.087 +06° 34' 39.20" 1.000E-01 0.500 F 0.223 -0.185 19.4 V 0.70 0.34 o 691 2.21 Yes Yes
2014JY24 O C H 2016-04-21.24865 1.000E-05 16:28:52.650 1.500E-01 0.500 F 0.138 -0.391 +06° 34' 35.90" 1.000E-01 0.500 F 0.223 0.025 19.4 V 0.70 0.34 o 691 0.79 Yes Yes
2016GN221 O C H 2016-04-21.26720 1.000E-05 14:41:45.950 1.500E-01 0.500 F 0.350 -1.011 -27° 16' 22.70" 1.000E-01 0.500 F 0.265 -0.052 19.4 V 0.70 -0.66 o 691 2.03 Yes Yes
2016GN221 O C H 2016-04-21.27130 1.000E-05 14:41:46.240 1.500E-01 0.500 F 0.350 0.164 -27° 16' 20.00" 1.000E-01 0.500 F 0.265 0.118 19.4 V 0.70 -0.66 o 691 0.40 Yes Yes
2007JX2 O C H 2016-04-21.32219 1.000E-05 17:02:03.600 1.500E-01 0.500 F 0.005 -1.821 -21° 35' 06.70" 1.000E-01 0.500 F 0.112 -0.910 o 691 4.00 No No
2007JX2 O C H 2016-04-21.32517 1.000E-05 17:02:02.990 1.500E-01 0.500 F 0.005 -1.046 -21° 35' 08.70" 1.000E-01 0.500 F 0.112 -1.062 o 691 3.02 Yes No
2007JX2 O C H 2016-04-21.32815 1.000E-05 17:02:02.290 1.500E-01 0.500 F 0.005 -1.521 -21° 35' 10.90" 1.000E-01 0.500 F 0.112 -1.416 o 691 4.10 No No
2007EP88 O C H 2016-04-23.13785 1.000E-05 07:52:36.750 1.500E-01 0.500 F 0.104 1.926 +03° 03' 15.10" 1.000E-01 0.500 F 0.153 -0.722 o 691 4.05 No No
2011UU20 O C H 2016-04-23.14132 1.000E-05 07:32:30.400 1.500E-01 0.500 F -0.015 -1.181 +27° 38' 22.60" 1.000E-01 0.500 F 0.243 0.624 20.1 V 0.70 -0.05 o 691 2.69 Yes Yes
2007EP88 O C H 2016-04-23.15098 1.000E-05 07:52:39.670 1.500E-01 0.500 F 0.104 1.136 +03° 03' 12.80" 1.000E-01 0.500 F 0.153 -0.392 o 691 2.44 Yes No
2011UU20 O C H 2016-04-23.15444 1.000E-05 07:32:33.780 1.500E-01 0.500 F -0.015 -0.495 +27° 37' 54.30" 1.000E-01 0.500 F 0.243 -0.083 20.3 V 0.70 0.15 o 691 1.01 Yes Yes
2007EP88 O C H 2016-04-23.16423 1.000E-05 07:52:42.590 1.500E-01 0.500 F 0.104 -0.080 +03° 03' 10.10" 1.000E-01 0.500 F 0.153 -0.435 o 691 0.89 Yes No
2011UU20 O C H 2016-04-23.16770 1.000E-05 07:32:37.240 1.500E-01 0.500 F -0.015 0.753 +27° 37' 26.30" 1.000E-01 0.500 F 0.243 -0.175 20.4 V 0.70 0.25 o 691 1.56 Yes Yes
2016GS2 O C H 2016-04-23.18580 1.000E-05 14:33:42.580 1.500E-01 0.500 F 0.140 -0.149 +04° 06' 05.90" 1.000E-01 0.500 F 0.212 0.206 19.4 V 0.70 -0.11 o 691 0.51 Yes Yes
2016GS2 O C H 2016-04-23.20171 1.000E-05 14:33:42.310 1.500E-01 0.500 F 0.140 -0.367 +04° 06' 22.20" 1.000E-01 0.500 F 0.212 0.347 19.6 V 0.70 0.09 o 691 1.01 Yes Yes
2016GS2 O C H 2016-04-26.40002 1.000E-05 14:33:35.020 1.500E-01 0.500 F 0.234 -0.005 +05° 04' 02.90" 1.000E-01 0.500 F 0.177 0.444 19.7 V 0.70 0.51 o 691 0.89 Yes Yes
2016GS2 O C H 2016-04-26.42142 1.000E-05 14:33:34.380 1.500E-01 0.500 F 0.234 -0.549 +05° 04' 27.50" 1.000E-01 0.500 F 0.177 0.205 19.6 V 0.70 0.41 o 691 1.17 Yes Yes
2016GS2 O C H 2016-04-26.43344 1.000E-05 14:33:34.070 1.500E-01 0.500 F 0.234 -0.437 +05° 04' 41.20" 1.000E-01 0.500 F 0.177 -0.019 19.5 V 0.70 0.31 o 691 0.88 Yes Yes
2016CL264 O C H 2016-04-27.14134 1.000E-05 06:25:59.550 1.500E-01 0.500 F -0.031 0.965 +31° 51' 50.80" 1.000E-01 0.500 F 0.193 2.001 21.1 V 0.70 -0.52 o 691 4.43 No Yes
2016CL264 O C H 2016-04-27.14475 1.000E-05 06:25:59.840 1.500E-01 0.500 F -0.031 -0.434 +31° 51' 52.90" 1.000E-01 0.500 F 0.193 -0.883 21.3 V 0.70 -0.32 o 691 1.97 Yes Yes
1998SH2 O C H 2016-04-27.18392 1.000E-05 09:28:03.170 1.500E-01 0.500 F 0.091 -1.227 +13° 09' 09.10" 1.000E-01 0.500 F 0.227 -0.069 21.6 V 0.70 0.65 o 691 2.52 Yes Yes
1998SH2 O C H 2016-04-27.18761 1.000E-05 09:28:02.610 1.500E-01 0.500 F 0.091 -0.561 +13° 09' 10.20" 1.000E-01 0.500 F 0.227 -0.075 21.4 V 0.70 0.45 o 691 1.16 Yes Yes
1998SH2 O C H 2016-04-27.19131 1.000E-05 09:28:01.940 1.500E-01 0.500 F 0.091 -1.483 +13° 09' 11.20" 1.000E-01 0.500 F 0.227 -0.181 21.4 V 0.70 0.45 o 691 3.06 Yes Yes
2015UK52 O C H 2016-04-27.19588 1.000E-05 09:58:20.400 1.500E-01 0.500 F 0.032 -1.655 -22° 28' 32.90" 1.000E-01 0.500 F -0.056 -0.282 21.5 V 0.70 -0.05 o 691 3.33 No Yes
2015UK52 O C H 2016-04-27.19960 1.000E-05 09:58:21.160 1.500E-01 0.500 F 0.032 0.406 -22° 28' 27.00" 1.000E-01 0.500 F -0.056 -0.532 21.8 V 0.70 0.25 o 691 1.35 Yes Yes
2016FW14 O C H 2016-04-27.20782 1.000E-05 10:26:24.180 1.500E-01 0.500 F 0.116 -0.770 -20° 45' 29.10" 1.000E-01 0.500 F -0.090 -0.066 21.3 V 0.70 0.08 o 691 1.58 Yes Yes
2009HA21 O C H 2016-04-27.21772 1.000E-05 12:06:43.950 1.500E-01 0.500 F 0.240 -0.647 -01° 05' 53.10" 1.000E-01 0.500 F 0.271 0.316 21.4 V 0.70 -0.30 o 691 1.45 Yes Yes
2016FW14 O C H 2016-04-27.22228 1.000E-05 10:26:22.090 1.500E-01 0.500 F 0.116 -0.603 -20° 45' 25.60" 1.000E-01 0.500 F -0.090 0.581 21.2 V 0.70 -0.02 o 691 1.69 Yes Yes
2009HA21 O C H 2016-04-27.23212 1.000E-05 12:06:43.490 1.500E-01 0.500 F 0.240 -0.480 -01° 05' 44.90" 1.000E-01 0.500 F 0.271 -0.180 21.5 V 0.70 -0.20 o 691 1.03 Yes Yes
2016FW14 O C H 2016-04-27.23669 1.000E-05 10:26:20.120 1.500E-01 0.500 F 0.116 1.068 -20° 45' 23.70" 1.000E-01 0.500 F -0.090 -0.407 21.2 V 0.70 -0.02 o 691 2.31 Yes Yes
2009HA21 O C H 2016-04-27.24662 1.000E-05 12:06:43.030 1.500E-01 0.500 F 0.240 -0.287 -01° 05' 36.40" 1.000E-01 0.500 F 0.271 -0.428 21.5 V 0.70 -0.20 o 691 1.04 Yes Yes
2016HC3 O C H 2016-04-27.25856 1.000E-05 12:38:56.710 1.500E-01 0.500 F 0.389 1.200 -29° 09' 25.80" 1.000E-01 0.500 F 0.077 -0.608 o 691 2.72 Yes No
2016HC3 O C H 2016-04-27.26177 1.000E-05 12:38:56.260 1.500E-01 0.500 F 0.389 0.871 -29° 09' 24.40" 1.000E-01 0.500 F 0.077 -0.611 o 691 2.15 Yes No
2016HC3 O C H 2016-04-27.26498 1.000E-05 12:38:55.820 1.500E-01 0.500 F 0.389 0.672 -29° 09' 22.50" 1.000E-01 0.500 F 0.077 -0.116 o 691 1.38 Yes No
2016GD1 O C H 2016-04-27.27725 1.000E-05 13:30:34.890 1.500E-01 0.500 F 0.199 0.316 -21° 08' 29.30" 1.000E-01 0.500 F -0.081 0.512 21.1 V 0.70 0.18 o 691 1.24 Yes Yes
2016GD1 O C H 2016-04-27.28938 1.000E-05 13:30:34.930 1.500E-01 0.500 F 0.199 -0.594 -21° 08' 50.10" 1.000E-01 0.500 F -0.081 0.798 20.7 V 0.70 -0.22 o 691 2.06 Yes Yes
2016GD1 O C H 2016-04-27.30149 1.000E-05 13:30:35.050 1.500E-01 0.500 F 0.199 -0.405 -21° 09' 12.60" 1.000E-01 0.500 F -0.081 -0.722 20.9 V 0.70 -0.02 o 691 1.71 Yes Yes
2016GN221 O C H 2016-04-27.32358 1.000E-05 14:47:44.110 1.500E-01 0.500 F 0.241 0.012 -25° 56' 21.30" 1.000E-01 0.500 F 0.378 0.052 20.0 V 0.70 0.34 o 691 0.11 Yes Yes
2016GN221 O C H 2016-04-27.34003 1.000E-05 14:47:44.960 1.500E-01 0.500 F 0.241 0.041 -25° 56' 05.70" 1.000E-01 0.500 F 0.378 -0.036 19.9 V 0.70 0.24 o 691 0.11 Yes Yes
2016GN221 O C H 2016-04-27.35676 1.000E-05 14:47:45.800 1.500E-01 0.500 F 0.241 -0.281 -25° 55' 49.60" 1.000E-01 0.500 F 0.378 -0.009 19.7 V 0.70 0.04 o 691 0.56 Yes Yes
2016GS2 O C H 2016-04-27.37068 1.000E-05 14:33:32.900 1.500E-01 0.500 F 0.194 -0.087 +05° 23' 44.30" 1.000E-01 0.500 F 0.240 -0.022 19.4 V 0.70 0.30 o 691 0.18 Yes Yes
2016GS2 O C H 2016-04-27.38633 1.000E-05 14:33:32.380 1.500E-01 0.500 F 0.194 -0.088 +05° 24' 03.70" 1.000E-01 0.500 F 0.240 -0.020 19.5 V 0.70 0.41 o 691 0.18 Yes Yes
2016GS2 O C H 2016-04-27.40325 1.000E-05 14:33:31.850 1.500E-01 0.500 F 0.194 0.060 +05° 24' 24.60" 1.000E-01 0.500 F 0.240 -0.043 19.4 V 0.70 0.31 o 691 0.15 Yes Yes
2016GD134 O C H 2016-04-27.42755 1.000E-05 15:40:07.570 1.500E-01 0.500 F 0.311 0.760 +08° 12' 15.60" 1.000E-01 0.500 F 0.225 -1.859 20.7 V 0.70 0.08 o 691 3.99 No Yes
2016HE3 O C H 2016-04-27.43086 1.000E-05 14:32:45.180 1.500E-01 0.500 F 0.138 -0.137 -12° 03' 43.60" 1.000E-01 0.500 F 0.003 0.483 19.4 V 0.70 0.29 o 691 1.03 Yes Yes
2016GD134 O C H 2016-04-27.43766 1.000E-05 15:40:06.290 1.500E-01 0.500 F 0.311 -0.253 +08° 12' 41.20" 1.000E-01 0.500 F 0.225 -1.016 20.7 V 0.70 0.08 o 691 2.10 Yes Yes
2016HE3 O C H 2016-04-27.44098 1.000E-05 14:32:38.210 1.500E-01 0.500 F 0.138 -0.520 -12° 01' 56.90" 1.000E-01 0.500 F 0.003 0.726 19.3 V 0.70 0.19 o 691 1.85 Yes Yes
2016GD134 O C H 2016-04-27.44784 1.000E-05 15:40:05.070 1.500E-01 0.500 F 0.311 -0.354 +08° 13' 06.70" 1.000E-01 0.500 F 0.225 -0.403 20.7 V 0.70 0.08 o 691 1.08 Yes Yes
2016FJ39 O C H 2016-04-27.45308 1.000E-05 15:57:35.400 1.500E-01 0.500 F 0.182 -0.834 +07° 46' 49.00" 1.000E-01 0.500 F 0.120 -0.215 20.8 V 0.70 -0.26 o 691 1.73 Yes Yes
2016FJ39 O C H 2016-04-27.45701 1.000E-05 15:57:35.650 1.500E-01 0.500 F 0.182 -0.163 +07° 46' 47.20" 1.000E-01 0.500 F 0.120 -0.002 21.1 V 0.70 0.04 o 691 0.33 Yes Yes
2009WO6 O C H 2016-04-27.46484 1.000E-05 15:52:54.340 1.500E-01 0.500 F 0.100 -0.789 +01° 21' 44.20" 1.000E-01 0.500 F 0.160 0.273 21.0 V 0.70 -0.68 o 691 1.68 Yes Yes
2009WO6 O C H 2016-04-27.46877 1.000E-05 15:52:54.150 1.500E-01 0.500 F 0.100 0.466 +01° 21' 43.50" 1.000E-01 0.500 F 0.160 -0.187 21.0 V 0.70 -0.68 o 691 1.01 Yes Yes
2009WO6 O C H 2016-04-27.47269 1.000E-05 15:52:53.860 1.500E-01 0.500 F 0.100 0.210 +01° 21' 42.90" 1.000E-01 0.500 F 0.160 -0.548 21.0 V 0.70 -0.68 o 691 1.18 Yes Yes
2016HC3 O C H 2016-04-28.27856 1.000E-05 12:36:47.330 1.500E-01 0.500 F 0.423 -0.827 -29° 01' 47.70" 1.000E-01 0.500 F 0.119 0.276 21.0 V 0.70 0.14 o 691 1.76 Yes Yes
2016HC3 O C H 2016-04-28.28226 1.000E-05 12:36:46.970 1.500E-01 0.500 F 0.423 0.860 -29° 01' 46.30" 1.000E-01 0.500 F 0.119 -0.081 20.7 V 0.70 -0.16 o 691 1.74 Yes Yes
2016HE O C H 2016-04-28.32659 1.000E-05 15:13:23.310 1.500E-01 0.500 F 0.180 0.683 -16° 07' 25.00" 1.000E-01 0.500 F 0.058 0.369 o 691 1.63 Yes No
2016HE O C H 2016-04-28.33028 1.000E-05 15:13:23.140 1.500E-01 0.500 F 0.180 0.304 -16° 07' 34.30" 1.000E-01 0.500 F 0.058 -0.513 o 691 1.21 Yes No

[1-200] [201-400] [401-600] [601-800] [801-1000] [1001-1200] [1201-1400] [1401-1600] [1601-1800] [1801-2000] [2001-2200] [2201-2400] [2401-2600] [2601-2800] [2801-3000] [3001-3200] [3201-3400] [3401-3600] [3601-3800] [3801-4000] [4001-4200] [4201-4400] [4401-4600] [4601-4800] [4801-5000] [5001-5200] [5201-5400] [5401-5600] [5601-5800] [5801-6000] [6001-6200] [6201-6400] [6401-6600] [6601-6800] [6801-7000] [7001-7200] [7201-7400] [7401-7600] [7601-7800] [7801-8000] [8001-8200] [8201-8400] [8401-8600] [8601-8800] [8801-9000] [9001-9200] [9201-9400] [9401-9600] [9601-9800] [9801-10000] [10001-10200] [10201-10400] [10401-10600] [10601-10800] [10801-11000] [11001-11200] [11201-11400] [11401-11600] [11601-11800] [11801-12000] [12001-12200] [12201-12400] [12401-12600] [12601-12800] [12801-13000] [13001-13200] [13201-13400] [13401-13600] [13601-13800] [13801-14000] [14001-14200] [14201-14400] [14401-14600] [14601-14800] [14801-15000] [15001-15200] [15201-15400] [15401-15600] [15601-15800] [15801-16000] [16001-16200] [16201-16400] [16401-16600] [16601-16800] [16801-17000] [17001-17200] [17201-17400] [17401-17600] [17601-17800] [17801-18000] [18001-18200] [18201-18400] [18401-18600] [18601-18800] [18801-19000] [19001-19200] [19201-19400] [19401-19600] [19601-19800] [19801-20000] [20001-20200] [20201-20400] [20401-20600] [20601-20800] [20801-21000] [21001-21200] [21201-21400] [21401-21600] [21601-21800] [21801-22000] [22001-22200] [22201-22400] [22401-22600] [22601-22800] [22801-23000] [23001-23200] [23201-23400] [23401-23600] [23601-23800] [23801-24000] [24001-24200] [24201-24400] [24401-24600] [24601-24800] [24801-25000] [25001-25200] [25201-25400] [25401-25600] [25601-25800] [25801-26000] [26001-26200] [26201-26400] [26401-26600] [26601-26800] [26801-27000] [27001-27200] [27201-27400] [27401-27600] [27601-27800] [27801-28000] [28001-28200] [28201-28400] [28401-28600] [28601-28800] [28801-29000] [29001-29200] [29201-29400] [29401-29600] [29601-29800] [29801-30000] [30001-30200] [30201-30400] [30401-30600] [30601-30800] [30801-31000] [31001-31200] [31201-31400] [31401-31600] [31601-31800] [31801-32000] [32001-32200] [32201-32400] [32401-32600] [32601-32800] [32801-33000] [33001-33200] [33201-33400] [33401-33600] [33601-33800] [33801-34000] [34001-34200] [34201-34400] [34401-34600] [34601-34800] [34801-35000] [35001-35200] [35201-35400] [35401-35600] [35601-35800] [35801-36000] [36001-36200] [36201-36400] [36401-36600] [36601-36800] [36801-37000] [37001-37200] [37201-37400] [37401-37600] [37601-37800] [37801-38000] [38001-38200] [38201-38400] [38401-38600] [38601-38800] [38801-39000] [39001-39200] [39201-39400] [39401-39600] [39601-39800] [39801-40000] [40001-40200] [40201-40400] [40401-40600] [40601-40800] [40801-41000] [41001-41200] [41201-41400] [41401-41600] [41601-41800] [41801-42000] [42001-42200] [42201-42400] [42401-42600] [42601-42800] [42801-43000] [43001-43200] [43201-43400] [43401-43600] [43601-43800] [43801-44000] [44001-44200] [44201-44400] [44401-44600] [44601-44800] [44801-45000] [45001-45200] [45201-45400] [45401-45600] [45601-45800] [45801-46000] [46001-46200] [46201-46400] [46401-46600] [46601-46800] [46801-47000] [47001-47200] [47201-47400] [47401-47600] [47601-47800] [47801-48000] [48001-48200] [48201-48400] [48401-48600] [48601-48800] [48801-49000] [49001-49200] [49201-49400] [49401-49600] [49601-49800] [49801-50000] [50001-50200] [50201-50388]